Time;durP1;ratioP1;P1;durP2;ratioP2;P2;SDS_P1;SDS_P2;PMS_P1;PMS_P2;Temp;Humidity;BMP_temperature;BMP_pressure;BME280_temperature;BME280_humidity;BME280_pressure;Samples;Min_cycle;Max_cycle;Signal;HPM_P1;HPM_P2
2022/11/13 00:02:18;;;;;;;14.82;12.15;;;;;;;;;;4990644;28;20390;-69
2022/11/13 00:05:03;;;;;;;15.35;12.43;;;;;;;;;;4992723;28;20092;-69
2022/11/13 00:07:47;;;;;;;15.13;12.40;;;;;;;;;;4983257;28;20493;-69
2022/11/13 00:10:32;;;;;;;15.80;12.77;;;;;;;;;;4992638;28;20038;-69
2022/11/13 00:13:16;;;;;;;16.60;14.05;;;;;;;;;;4986967;28;20512;-69
2022/11/13 00:16:03;;;;;;;15.45;12.90;;;;;;;;;;4989350;28;20595;-69
2022/11/13 00:18:48;;;;;;;12.40;11.15;;;;;;;;;;4997365;28;20405;-69
2022/11/13 00:21:32;;;;;;;10.50;9.48;;;;;;;;;;4994415;28;20073;-69
2022/11/13 00:24:16;;;;;;;15.95;12.45;;;;;;;;;;4988672;28;20049;-69
2022/11/13 00:27:00;;;;;;;13.80;12.40;;;;;;;;;;5000330;28;20117;-69
2022/11/13 00:29:45;;;;;;;14.10;12.23;;;;;;;;;;4995521;28;20105;-70
2022/11/13 00:32:30;;;;;;;11.90;10.70;;;;;;;;;;4987310;28;20651;-70
2022/11/13 00:35:14;;;;;;;12.23;10.20;;;;;;;;;;4998727;28;20075;-69
2022/11/13 00:37:59;;;;;;;14.68;11.38;;;;;;;;;;4998387;28;20068;-69
2022/11/13 00:40:43;;;;;;;13.02;11.02;;;;;;;;;;4989645;28;20532;-70
2022/11/13 00:43:27;;;;;;;13.05;11.40;;;;;;;;;;4986259;28;20034;-70
2022/11/13 00:46:12;;;;;;;19.77;12.55;;;;;;;;;;4997300;28;20412;-69
2022/11/13 00:48:56;;;;;;;15.48;12.02;;;;;;;;;;4992804;28;20115;-69
2022/11/13 00:51:41;;;;;;;16.23;12.30;;;;;;;;;;4989066;28;20085;-69
2022/11/13 00:54:25;;;;;;;20.70;12.93;;;;;;;;;;4991975;28;20045;-70
2022/11/13 00:57:09;;;;;;;15.77;11.10;;;;;;;;;;4988207;28;20085;-69
2022/11/13 00:59:54;;;;;;;27.83;13.60;;;;;;;;;;4990072;28;20553;-69
2022/11/13 01:02:38;;;;;;;35.88;14.40;;;;;;;;;;4993198;28;20121;-69
2022/11/13 01:05:22;;;;;;;19.13;12.75;;;;;;;;;;4992901;28;20098;-69
2022/11/13 01:08:08;;;;;;;25.30;13.65;;;;;;;;;;4989600;28;20129;-69
2022/11/13 01:10:52;;;;;;;27.70;12.27;;;;;;;;;;4995546;28;20034;-69
2022/11/13 01:13:37;;;;;;;27.50;15.35;;;;;;;;;;4994848;28;20038;-69
2022/11/13 01:16:24;;;;;;;19.48;13.73;;;;;;;;;;4993072;28;20045;-69
2022/11/13 01:19:09;;;;;;;13.07;11.32;;;;;;;;;;4990838;28;20064;-69
2022/11/13 01:21:53;;;;;;;38.20;13.73;;;;;;;;;;4994655;28;20034;-69
2022/11/13 01:24:37;;;;;;;24.15;14.02;;;;;;;;;;4994445;28;20049;-69
2022/11/13 01:27:21;;;;;;;26.42;12.32;;;;;;;;;;4986440;28;20054;-69
2022/11/13 01:30:07;;;;;;;51.10;14.05;;;;;;;;;;4995117;28;20531;-70
2022/11/13 01:32:51;;;;;;;16.85;12.43;;;;;;;;;;4995714;28;20121;-70
2022/11/13 01:35:35;;;;;;;33.72;13.30;;;;;;;;;;4989930;28;20030;-69
2022/11/13 01:38:19;;;;;;;33.67;12.57;;;;;;;;;;4989357;28;20092;-69
2022/11/13 01:41:05;;;;;;;17.20;12.85;;;;;;;;;;4998566;28;20034;-69
2022/11/13 01:43:51;;;;;;;31.65;13.27;;;;;;;;;;4997254;28;20078;-69
2022/11/13 01:46:39;;;;;;;40.60;14.80;;;;;;;;;;4984848;28;20038;-69
2022/11/13 01:49:28;;;;;;;28.80;12.82;;;;;;;;;;4997042;28;20764;-69
2022/11/13 01:52:26;;;;;;;22.38;12.18;;;;;;;;;;4999092;28;20025;-69
2022/11/13 01:55:13;;;;;;;40.60;13.43;;;;;;;;;;4991633;28;20036;-69
2022/11/13 01:57:57;;;;;;;47.10;14.07;;;;;;;;;;4995693;28;20061;-69
2022/11/13 02:00:42;;;;;;;17.35;12.82;;;;;;;;;;4995657;28;20045;-69
2022/11/13 02:03:26;;;;;;;23.15;12.77;;;;;;;;;;4982291;28;20031;-69
2022/11/13 02:06:10;;;;;;;20.38;13.95;;;;;;;;;;4990342;28;20044;-69
2022/11/13 02:08:55;;;;;;;16.13;12.93;;;;;;;;;;4996490;28;20026;-69
2022/11/13 02:11:40;;;;;;;21.90;12.95;;;;;;;;;;4989943;28;20037;-70
2022/11/13 02:14:26;;;;;;;20.30;12.38;;;;;;;;;;4988259;28;20529;-69
2022/11/13 02:17:16;;;;;;;29.05;11.43;;;;;;;;;;4997884;28;20164;-69
2022/11/13 02:20:05;;;;;;;45.28;13.45;;;;;;;;;;4988991;28;20070;-70
2022/11/13 02:22:58;;;;;;;22.55;11.55;;;;;;;;;;4988312;28;20543;-69
2022/11/13 02:25:45;;;;;;;16.67;11.32;;;;;;;;;;4994586;28;20041;-69
2022/11/13 02:28:29;;;;;;;28.40;11.48;;;;;;;;;;4993916;28;20145;-70
2022/11/13 02:31:14;;;;;;;23.20;11.30;;;;;;;;;;4989861;28;21532;-69
2022/11/13 02:34:00;;;;;;;28.45;11.55;;;;;;;;;;4995037;28;20109;-69
2022/11/13 02:36:45;;;;;;;17.50;12.00;;;;;;;;;;4994559;28;20543;-69
2022/11/13 02:39:29;;;;;;;13.15;9.80;;;;;;;;;;5002122;28;20504;-69
2022/11/13 02:42:14;;;;;;;36.80;12.30;;;;;;;;;;4993827;28;20120;-69
2022/11/13 02:44:58;;;;;;;21.60;11.90;;;;;;;;;;5004823;28;20040;-69
2022/11/13 02:47:42;;;;;;;38.88;13.35;;;;;;;;;;4985356;28;20040;-69
2022/11/13 02:50:26;;;;;;;22.65;14.45;;;;;;;;;;4994901;28;20497;-69
2022/11/13 02:53:11;;;;;;;41.42;13.93;;;;;;;;;;4990539;28;20065;-69
2022/11/13 02:55:55;;;;;;;41.25;15.63;;;;;;;;;;4988431;28;20048;-69
2022/11/13 02:58:40;;;;;;;32.60;13.30;;;;;;;;;;4993120;28;20174;-69
2022/11/13 03:01:24;;;;;;;53.85;15.63;;;;;;;;;;4985187;28;20046;-69
2022/11/13 03:04:08;;;;;;;37.00;13.73;;;;;;;;;;4982606;28;20437;-69
2022/11/13 03:06:52;;;;;;;49.30;14.05;;;;;;;;;;4990464;28;20034;-69
2022/11/13 03:09:37;;;;;;;91.30;16.30;;;;;;;;;;4992103;28;20040;-69
2022/11/13 03:12:21;;;;;;;37.60;14.15;;;;;;;;;;4981013;28;20033;-69
2022/11/13 03:15:06;;;;;;;74.45;15.50;;;;;;;;;;4991147;28;20548;-69
2022/11/13 03:17:51;;;;;;;76.40;17.13;;;;;;;;;;4990299;28;20605;-69
2022/11/13 03:20:37;;;;;;;59.40;15.13;;;;;;;;;;4983945;28;20092;-69
2022/11/13 03:23:21;;;;;;;73.75;14.90;;;;;;;;;;4991241;28;20025;-69
2022/11/13 03:26:09;;;;;;;53.88;14.88;;;;;;;;;;4992085;28;20052;-69
2022/11/13 03:28:53;;;;;;;119.95;17.02;;;;;;;;;;4987328;28;20041;-69
2022/11/13 03:31:38;;;;;;;171.88;18.58;;;;;;;;;;4990549;28;20113;-69
2022/11/13 03:34:22;;;;;;;126.43;17.23;;;;;;;;;;4992236;28;20051;-69
2022/11/13 03:37:07;;;;;;;178.10;21.27;;;;;;;;;;4983834;28;20113;-69
2022/11/13 03:39:51;;;;;;;146.23;19.73;;;;;;;;;;4989472;28;20031;-69
2022/11/13 03:42:35;;;;;;;117.70;16.90;;;;;;;;;;4987033;28;20124;-69
2022/11/13 03:45:19;;;;;;;230.88;22.67;;;;;;;;;;4984743;28;20057;-70
2022/11/13 03:48:04;;;;;;;105.70;16.52;;;;;;;;;;4980449;28;20092;-70
2022/11/13 03:50:51;;;;;;;108.22;17.48;;;;;;;;;;4989465;28;20037;-69
2022/11/13 03:53:35;;;;;;;66.68;13.73;;;;;;;;;;4985190;28;20030;-69
2022/11/13 03:56:19;;;;;;;133.13;17.80;;;;;;;;;;4994937;28;20041;-69
2022/11/13 03:59:03;;;;;;;112.25;17.55;;;;;;;;;;4981961;28;20038;-69
2022/11/13 04:01:48;;;;;;;116.88;17.17;;;;;;;;;;4998279;28;20041;-69
2022/11/13 04:04:32;;;;;;;62.22;13.15;;;;;;;;;;4984390;28;20056;-69
2022/11/13 04:07:16;;;;;;;86.15;14.00;;;;;;;;;;4983235;28;20037;-69
2022/11/13 04:10:01;;;;;;;57.33;12.73;;;;;;;;;;4991822;28;20044;-69
2022/11/13 04:12:45;;;;;;;46.88;12.18;;;;;;;;;;4992484;28;20035;-69
2022/11/13 04:15:29;;;;;;;43.38;13.57;;;;;;;;;;4979474;28;20160;-69
2022/11/13 04:18:13;;;;;;;120.82;14.55;;;;;;;;;;4985353;28;20066;-69
2022/11/13 04:21:02;;;;;;;85.90;14.95;;;;;;;;;;4981383;28;20061;-69
2022/11/13 04:23:46;;;;;;;83.63;16.65;;;;;;;;;;4984351;28;20061;-69
2022/11/13 04:26:30;;;;;;;41.95;14.38;;;;;;;;;;4983494;28;20113;-69
2022/11/13 04:29:15;;;;;;;55.55;13.48;;;;;;;;;;4990622;28;20042;-69
2022/11/13 04:31:59;;;;;;;32.30;14.05;;;;;;;;;;4994746;28;20026;-69
2022/11/13 04:34:44;;;;;;;24.58;12.93;;;;;;;;;;4985176;28;20548;-69
2022/11/13 04:37:28;;;;;;;24.30;13.23;;;;;;;;;;4992026;28;20037;-70
2022/11/13 04:40:12;;;;;;;12.55;11.25;;;;;;;;;;4994019;28;20110;-69
2022/11/13 04:42:56;;;;;;;21.33;12.82;;;;;;;;;;4987854;28;20504;-69
2022/11/13 04:45:41;;;;;;;16.08;13.02;;;;;;;;;;4984055;28;20053;-69
2022/11/13 04:48:25;;;;;;;16.73;13.30;;;;;;;;;;4988923;28;20473;-69
2022/11/13 04:51:10;;;;;;;37.20;15.82;;;;;;;;;;4996526;28;20034;-69
2022/11/13 04:53:54;;;;;;;32.50;15.45;;;;;;;;;;4985588;28;20031;-69
2022/11/13 04:56:39;;;;;;;29.15;14.50;;;;;;;;;;4981761;28;20030;-69
2022/11/13 04:59:23;;;;;;;42.13;16.58;;;;;;;;;;4986044;28;20085;-69
2022/11/13 05:02:07;;;;;;;39.00;15.05;;;;;;;;;;4986912;28;20063;-69
2022/11/13 05:04:52;;;;;;;55.00;15.20;;;;;;;;;;4994552;28;20053;-69
2022/11/13 05:07:36;;;;;;;23.73;13.43;;;;;;;;;;4995897;28;20084;-69
2022/11/13 05:10:20;;;;;;;41.25;14.05;;;;;;;;;;4989885;28;20044;-69
2022/11/13 05:13:05;;;;;;;30.75;14.15;;;;;;;;;;4993441;28;20037;-69
2022/11/13 05:15:49;;;;;;;32.42;15.00;;;;;;;;;;5000412;28;20494;-69
2022/11/13 05:18:36;;;;;;;99.30;18.52;;;;;;;;;;4990384;28;20080;-69
2022/11/13 05:21:20;;;;;;;61.13;15.60;;;;;;;;;;4993099;28;20053;-69
2022/11/13 05:24:05;;;;;;;64.70;16.77;;;;;;;;;;4994530;28;20035;-69
2022/11/13 05:26:49;;;;;;;93.00;16.70;;;;;;;;;;4991699;28;20070;-69
2022/11/13 05:29:33;;;;;;;142.48;18.63;;;;;;;;;;4990782;28;20097;-70
2022/11/13 05:32:18;;;;;;;172.80;19.60;;;;;;;;;;4995620;28;20026;-69
2022/11/13 05:35:02;;;;;;;146.05;19.65;;;;;;;;;;4989680;28;20053;-69
2022/11/13 05:37:47;;;;;;;143.48;20.38;;;;;;;;;;4991439;28;20095;-69
2022/11/13 05:40:31;;;;;;;118.32;18.63;;;;;;;;;;4992482;28;20030;-69
2022/11/13 05:43:15;;;;;;;102.15;19.15;;;;;;;;;;4986507;28;20026;-69
2022/11/13 05:46:11;;;;;;;103.13;19.67;;;;;;;;;;4993215;28;20066;-69
2022/11/13 05:48:58;;;;;;;425.10;30.33;;;;;;;;;;4988909;28;20088;-69
2022/11/13 05:51:42;;;;;;;205.50;23.08;;;;;;;;;;4986325;28;20154;-69
2022/11/13 05:54:26;;;;;;;186.98;22.23;;;;;;;;;;4990017;28;20259;-70
2022/11/13 05:57:11;;;;;;;147.45;22.98;;;;;;;;;;4977492;28;20108;-69
2022/11/13 05:59:55;;;;;;;178.65;23.15;;;;;;;;;;4989058;28;20107;-69
2022/11/13 06:02:39;;;;;;;450.80;32.70;;;;;;;;;;4991177;28;20030;-69
2022/11/13 06:05:23;;;;;;;299.85;28.20;;;;;;;;;;4993101;28;20034;-69
2022/11/13 06:08:08;;;;;;;256.55;25.38;;;;;;;;;;4991009;28;20070;-69
2022/11/13 06:10:57;;;;;;;162.65;22.70;;;;;;;;;;4992186;28;20414;-74
2022/11/13 06:13:41;;;;;;;117.43;21.05;;;;;;;;;;4985142;28;20069;-74
2022/11/13 06:16:32;;;;;;;140.90;23.17;;;;;;;;;;4986985;28;20034;-74
2022/11/13 06:19:16;;;;;;;137.90;22.55;;;;;;;;;;5019514;23;20634;-69
2022/11/13 06:22:01;;;;;;;224.30;26.02;;;;;;;;;;4993860;28;20029;-69
2022/11/13 06:24:45;;;;;;;234.48;23.58;;;;;;;;;;4996104;28;20212;-69
2022/11/13 06:27:29;;;;;;;258.70;27.55;;;;;;;;;;4986083;28;20057;-69
2022/11/13 06:30:13;;;;;;;381.20;28.83;;;;;;;;;;4994035;28;20045;-68
2022/11/13 06:32:58;;;;;;;213.82;24.90;;;;;;;;;;4985136;28;20417;-69
2022/11/13 06:35:42;;;;;;;200.85;22.52;;;;;;;;;;4995842;28;20125;-69
2022/11/13 06:38:30;;;;;;;131.20;19.52;;;;;;;;;;4992853;28;20046;-69
2022/11/13 06:41:16;;;;;;;78.10;17.00;;;;;;;;;;4989263;28;20061;-68
2022/11/13 06:44:00;;;;;;;175.90;23.10;;;;;;;;;;4987566;28;20436;-69
2022/11/13 06:46:45;;;;;;;274.35;26.63;;;;;;;;;;4993343;28;20045;-69
2022/11/13 06:49:29;;;;;;;234.10;21.77;;;;;;;;;;4985223;28;20092;-69
2022/11/13 06:52:13;;;;;;;132.20;20.42;;;;;;;;;;4991383;28;20018;-69
2022/11/13 06:54:57;;;;;;;222.45;22.88;;;;;;;;;;4998259;28;20535;-69
2022/11/13 06:57:41;;;;;;;324.60;27.35;;;;;;;;;;4988037;28;20038;-69
2022/11/13 07:00:26;;;;;;;323.35;24.70;;;;;;;;;;4986754;28;20081;-70
2022/11/13 07:03:18;;;;;;;369.30;27.85;;;;;;;;;;4995910;28;20104;-70
2022/11/13 07:06:04;;;;;;;397.92;26.23;;;;;;;;;;4989483;28;20529;-69
2022/11/13 07:08:48;;;;;;;186.43;22.80;;;;;;;;;;4987174;28;20041;-69
2022/11/13 07:11:32;;;;;;;438.73;28.15;;;;;;;;;;4993904;28;20084;-69
2022/11/13 07:14:16;;;;;;;315.98;24.30;;;;;;;;;;4992154;28;20157;-69
2022/11/13 07:17:01;;;;;;;365.23;25.45;;;;;;;;;;4988000;28;20136;-69
2022/11/13 07:19:45;;;;;;;786.42;47.72;;;;;;;;;;4987162;28;20037;-69
2022/11/13 07:22:29;;;;;;;435.48;33.72;;;;;;;;;;4996429;28;20128;-69
2022/11/13 07:25:14;;;;;;;358.55;30.27;;;;;;;;;;4985452;28;20113;-68
2022/11/13 07:27:58;;;;;;;496.10;31.45;;;;;;;;;;4986797;28;20500;-69
2022/11/13 07:30:42;;;;;;;402.25;27.02;;;;;;;;;;4993141;28;20045;-69
2022/11/13 07:33:26;;;;;;;533.85;32.90;;;;;;;;;;4994646;28;20073;-69
2022/11/13 07:36:11;;;;;;;388.17;28.27;;;;;;;;;;4995488;28;20041;-69
2022/11/13 07:38:55;;;;;;;190.85;19.65;;;;;;;;;;4986395;28;20545;-69
2022/11/13 07:41:39;;;;;;;351.25;26.17;;;;;;;;;;4987727;28;20141;-69
2022/11/13 07:44:24;;;;;;;420.73;28.40;;;;;;;;;;4995063;28;20080;-69
2022/11/13 07:47:08;;;;;;;386.73;73.90;;;;;;;;;;4991243;28;20045;-69
2022/11/13 07:49:53;;;;;;;294.63;28.92;;;;;;;;;;4992224;28;20944;-69
2022/11/13 07:52:37;;;;;;;291.15;25.48;;;;;;;;;;4997804;28;21291;-70
2022/11/13 07:55:22;;;;;;;176.45;17.95;;;;;;;;;;4989572;28;20052;-68
2022/11/13 07:58:06;;;;;;;215.13;22.58;;;;;;;;;;4990413;28;20445;-69
2022/11/13 08:00:50;;;;;;;238.13;21.73;;;;;;;;;;4990522;28;20033;-69
2022/11/13 08:03:36;;;;;;;301.02;22.23;;;;;;;;;;4994176;28;20038;-69
2022/11/13 08:06:20;;;;;;;177.55;21.77;;;;;;;;;;4991552;28;20038;-69
2022/11/13 08:09:04;;;;;;;360.80;26.23;;;;;;;;;;4991594;28;20046;-70
2022/11/13 08:11:48;;;;;;;481.15;32.63;;;;;;;;;;4987103;28;20073;-69
2022/11/13 08:14:33;;;;;;;385.50;33.13;;;;;;;;;;4988745;28;20033;-69
2022/11/13 08:17:17;;;;;;;284.30;24.73;;;;;;;;;;4994897;28;20034;-69
2022/11/13 08:20:02;;;;;;;195.27;21.80;;;;;;;;;;4987062;28;20252;-70
2022/11/13 08:22:47;;;;;;;348.23;28.27;;;;;;;;;;4990897;28;20089;-68
2022/11/13 08:25:32;;;;;;;188.30;22.52;;;;;;;;;;4993858;28;20444;-70
2022/11/13 08:28:16;;;;;;;318.08;24.60;;;;;;;;;;4989421;28;20117;-69
2022/11/13 08:31:01;;;;;;;255.25;24.65;;;;;;;;;;4988446;28;20033;-68
2022/11/13 08:33:46;;;;;;;353.50;31.25;;;;;;;;;;4995029;28;20045;-69
2022/11/13 08:36:30;;;;;;;409.30;30.77;;;;;;;;;;4988501;28;20043;-68
2022/11/13 08:39:14;;;;;;;365.48;31.27;;;;;;;;;;4991868;28;20452;-69
2022/11/13 08:41:59;;;;;;;386.33;33.33;;;;;;;;;;4996161;28;20034;-69
2022/11/13 08:44:43;;;;;;;273.67;35.22;;;;;;;;;;4989660;28;20045;-69
2022/11/13 08:47:28;;;;;;;349.30;34.65;;;;;;;;;;4991802;28;20037;-69
2022/11/13 08:50:12;;;;;;;286.90;31.60;;;;;;;;;;4989729;28;20081;-69
2022/11/13 08:52:58;;;;;;;385.42;44.30;;;;;;;;;;4998848;28;20035;-69
2022/11/13 08:55:42;;;;;;;324.40;38.65;;;;;;;;;;4990826;28;20034;-69
2022/11/13 08:58:26;;;;;;;284.55;33.47;;;;;;;;;;4992741;28;20042;-69
2022/11/13 09:01:10;;;;;;;290.92;33.90;;;;;;;;;;4993784;28;20054;-70
2022/11/13 09:03:55;;;;;;;150.90;26.13;;;;;;;;;;4992219;28;20089;-70
2022/11/13 09:06:39;;;;;;;237.38;35.05;;;;;;;;;;4989072;28;20066;-70
2022/11/13 09:09:24;;;;;;;253.77;34.10;;;;;;;;;;4989635;28;20092;-70
2022/11/13 09:12:08;;;;;;;343.30;40.10;;;;;;;;;;4989262;28;20030;-70
2022/11/13 09:14:52;;;;;;;187.02;32.00;;;;;;;;;;4992220;28;20038;-69
2022/11/13 09:17:37;;;;;;;135.70;31.52;;;;;;;;;;4996885;28;20070;-69
2022/11/13 09:20:21;;;;;;;130.95;31.70;;;;;;;;;;4986430;28;20037;-71
2022/11/13 09:23:08;;;;;;;90.30;26.05;;;;;;;;;;4993273;28;20088;-70
2022/11/13 09:25:52;;;;;;;131.88;33.05;;;;;;;;;;4997258;28;20030;-70
2022/11/13 09:28:36;;;;;;;91.55;26.70;;;;;;;;;;4983886;28;20054;-70
2022/11/13 09:31:20;;;;;;;94.47;29.33;;;;;;;;;;4996213;28;20038;-70
2022/11/13 09:34:04;;;;;;;94.72;29.88;;;;;;;;;;4986871;28;20046;-69
2022/11/13 09:36:48;;;;;;;86.53;26.50;;;;;;;;;;4996372;28;20031;-70
2022/11/13 09:39:33;;;;;;;117.47;34.63;;;;;;;;;;4992500;28;20281;-70
2022/11/13 09:42:21;;;;;;;109.93;32.13;;;;;;;;;;4987466;28;20026;-70
2022/11/13 09:45:09;;;;;;;80.88;27.33;;;;;;;;;;4994109;28;20042;-70
2022/11/13 09:47:58;;;;;;;88.80;31.92;;;;;;;;;;4987093;28;20037;-69
2022/11/13 09:50:42;;;;;;;90.38;29.52;;;;;;;;;;4989774;28;20062;-69
2022/11/13 09:53:33;;;;;;;95.28;27.15;;;;;;;;;;4995938;28;20033;-69
2022/11/13 09:56:36;;;;;;;96.45;30.27;;;;;;;;;;4990932;28;20454;-69
2022/11/13 09:59:43;;;;;;;95.03;31.45;;;;;;;;;;4995393;28;20057;-70
2022/11/13 10:02:52;;;;;;;84.28;29.25;;;;;;;;;;4996898;28;20053;-70
2022/11/13 10:05:36;;;;;;;;;;;;;;;;;;4985282;28;20069;-69
2022/11/13 10:08:28;;;;;;;104.13;30.20;;;;;;;;;;4996101;28;20178;-70
2022/11/13 10:11:37;;;;;;;84.55;28.70;;;;;;;;;;4992040;28;20486;-70
2022/11/13 10:14:30;;;;;;;78.28;29.50;;;;;;;;;;4989272;28;20037;-68
2022/11/13 10:17:37;;;;;;;114.25;34.63;;;;;;;;;;4997497;28;20045;-70
2022/11/13 10:20:37;;;;;;;70.30;25.80;;;;;;;;;;4997154;28;20038;-70
2022/11/13 10:23:30;;;;;;;61.53;26.00;;;;;;;;;;4993155;28;20030;-70
2022/11/13 10:26:17;;;;;;;82.15;32.55;;;;;;;;;;4995777;28;20484;-70
2022/11/13 10:29:10;;;;;;;87.18;33.90;;;;;;;;;;4994623;28;20029;-69
2022/11/13 10:31:56;;;;;;;62.00;26.83;;;;;;;;;;4992909;28;20040;-70
2022/11/13 10:34:44;;;;;;;70.70;27.63;;;;;;;;;;4990237;28;20038;-70
2022/11/13 10:37:48;;;;;;;46.70;23.70;;;;;;;;;;4995953;28;20137;-70
2022/11/13 10:40:36;;;;;;;60.47;26.88;;;;;;;;;;4988466;28;20394;-69
2022/11/13 10:43:24;;;;;;;48.10;25.10;;;;;;;;;;4997748;28;20477;-70
2022/11/13 10:46:19;;;;;;;43.30;23.33;;;;;;;;;;4993653;28;20034;-68
2022/11/13 10:49:16;;;;;;;36.08;22.15;;;;;;;;;;4994637;28;20078;-70
2022/11/13 10:52:01;;;;;;;30.70;20.27;;;;;;;;;;4991821;28;20058;-69
2022/11/13 10:54:46;;;;;;;25.52;19.63;;;;;;;;;;4989362;28;20118;-69
2022/11/13 10:57:33;;;;;;;23.33;18.15;;;;;;;;;;4985814;28;20093;-70
2022/11/13 11:00:28;;;;;;;20.08;18.00;;;;;;;;;;4991151;28;20575;-69
2022/11/13 11:03:14;;;;;;;17.30;14.98;;;;;;;;;;4990597;28;20041;-69
2022/11/13 11:06:03;;;;;;;17.10;15.40;;;;;;;;;;4987686;28;20120;-69
2022/11/13 11:08:47;;;;;;;17.50;15.80;;;;;;;;;;4994870;28;20042;-70
2022/11/13 11:14:41;;;;;;;14.40;13.10;;;;;;;;;;4990681;28;20045;-69
2022/11/13 11:17:37;;;;;;;14.68;13.27;;;;;;;;;;4991405;28;20528;-69
2022/11/13 11:20:39;;;;;;;15.32;13.82;;;;;;;;;;4994931;28;20882;-69
2022/11/13 11:23:42;;;;;;;15.35;13.88;;;;;;;;;;4988795;28;20062;-69
2022/11/13 11:26:40;;;;;;;13.80;12.48;;;;;;;;;;4991982;28;20489;-70
2022/11/13 11:29:27;;;;;;;13.73;12.43;;;;;;;;;;4996240;28;20449;-70
2022/11/13 11:32:49;;;;;;;14.02;12.73;;;;;;;;;;4990175;28;20069;-70
2022/11/13 11:35:39;;;;;;;12.93;11.73;;;;;;;;;;4990897;28;20046;-69
2022/11/13 11:38:34;;;;;;;13.57;12.38;;;;;;;;;;4992853;28;20570;-69
2022/11/13 11:41:25;;;;;;;13.23;12.13;;;;;;;;;;4995617;28;20031;-69
2022/11/13 11:44:29;;;;;;;13.57;12.32;;;;;;;;;;5005074;28;20069;-70
2022/11/13 11:47:16;;;;;;;13.15;11.85;;;;;;;;;;4995772;28;20030;-69
2022/11/13 11:50:03;;;;;;;13.48;12.27;;;;;;;;;;4991825;28;20076;-68
2022/11/13 11:53:04;;;;;;;14.30;13.02;;;;;;;;;;4992560;28;20026;-70
2022/11/13 11:56:03;;;;;;;14.45;13.15;;;;;;;;;;4996394;28;20034;-69
2022/11/13 11:59:10;;;;;;;14.98;13.57;;;;;;;;;;4997127;28;20041;-69
2022/11/13 12:02:05;;;;;;;15.82;14.23;;;;;;;;;;4989152;28;20042;-70
2022/11/13 12:05:00;;;;;;;14.43;13.02;;;;;;;;;;4994970;28;20502;-70
2022/11/13 12:08:08;;;;;;;15.32;13.95;;;;;;;;;;4999109;28;20029;-70
2022/11/13 12:10:58;;;;;;;14.55;13.15;;;;;;;;;;4994209;28;20124;-71
2022/11/13 12:14:11;;;;;;;15.65;14.15;;;;;;;;;;4991428;28;20104;-70
2022/11/13 12:17:06;;;;;;;15.23;13.73;;;;;;;;;;4993485;28;20035;-69
2022/11/13 12:20:01;;;;;;;14.32;13.00;;;;;;;;;;4995740;28;20085;-69
2022/11/13 12:22:58;;;;;;;15.02;13.65;;;;;;;;;;4987981;28;20049;-70
2022/11/13 12:25:59;;;;;;;14.57;13.18;;;;;;;;;;4991245;28;20508;-71
2022/11/13 12:29:14;;;;;;;14.60;13.23;;;;;;;;;;4998639;28;20157;-70
2022/11/13 12:32:28;;;;;;;15.48;13.98;;;;;;;;;;5023346;22;20057;-71
2022/11/13 12:35:17;;;;;;;14.90;13.38;;;;;;;;;;5004360;28;20041;-69
2022/11/13 12:38:06;;;;;;;15.52;14.20;;;;;;;;;;5015241;28;20084;-69
2022/11/13 12:40:56;;;;;;;13.45;12.23;;;;;;;;;;5008546;28;20072;-73
2022/11/13 12:43:41;;;;;;;14.60;13.20;;;;;;;;;;4990590;28;20246;-71
2022/11/13 12:46:37;;;;;;;14.15;12.85;;;;;;;;;;4994157;28;20065;-71
2022/11/13 12:49:21;;;;;;;14.60;13.20;;;;;;;;;;4994043;28;20040;-71
2022/11/13 12:52:14;;;;;;;14.73;13.32;;;;;;;;;;4991797;28;20504;-71
2022/11/13 12:55:23;;;;;;;15.13;13.15;;;;;;;;;;4998242;28;20037;-71
2022/11/13 12:58:36;;;;;;;14.93;13.50;;;;;;;;;;4992476;28;20034;-69
2022/11/13 13:01:23;;;;;;;14.68;13.27;;;;;;;;;;4944152;28;20162;-70
2022/11/13 13:04:36;;;;;;;14.07;12.68;;;;;;;;;;4950235;28;20133;-70
2022/11/13 13:07:23;;;;;;;13.60;12.38;;;;;;;;;;4942742;28;20047;-69
2022/11/13 13:10:22;;;;;;;14.50;13.02;;;;;;;;;;4939079;28;20243;-71
2022/11/13 13:13:16;;;;;;;16.63;14.07;;;;;;;;;;4940458;28;20529;-71
2022/11/13 13:16:02;;;;;;;14.07;12.68;;;;;;;;;;4946810;28;20549;-71
2022/11/13 13:18:46;;;;;;;15.38;13.88;;;;;;;;;;4956738;28;20054;-71
2022/11/13 13:21:40;;;;;;;14.48;13.05;;;;;;;;;;4945202;28;20398;-71
2022/11/13 13:24:27;;;;;;;14.15;12.75;;;;;;;;;;4952958;28;20058;-70
2022/11/13 13:27:21;;;;;;;13.40;12.13;;;;;;;;;;4958093;28;20126;-71
2022/11/13 13:30:20;;;;;;;13.57;12.23;;;;;;;;;;4940646;28;20437;-71
2022/11/13 13:33:26;;;;;;;13.85;12.40;;;;;;;;;;4944212;28;20039;-71
2022/11/13 13:36:36;;;;;;;14.55;13.05;;;;;;;;;;4947250;28;20047;-72
2022/11/13 13:39:58;;;;;;;15.63;13.75;;;;;;;;;;4970541;28;20212;-71
2022/11/13 13:42:57;;;;;;;17.95;14.50;;;;;;;;;;4986007;28;20142;-71
2022/11/13 13:45:41;;;;;;;;;;;;;;;;;;4999105;28;20040;-71
2022/11/13 13:48:28;;;;;;;17.70;15.18;;;;;;;;;;4995770;28;19975;-71
2022/11/13 13:51:38;;;;;;;17.88;14.23;;;;;;;;;;4984654;28;20045;-71
2022/11/13 13:54:26;;;;;;;15.00;13.50;;;;;;;;;;4970008;28;20057;-71
2022/11/13 13:57:14;;;;;;;14.02;12.38;;;;;;;;;;4987967;28;20045;-72
2022/11/13 13:59:59;;;;;;;14.15;12.75;;;;;;;;;;5005331;28;20046;-70
2022/11/13 14:02:47;;;;;;;17.08;12.48;;;;;;;;;;4995171;28;20559;-70
2022/11/13 14:05:34;;;;;;;13.95;12.60;;;;;;;;;;4994413;28;20140;-70
2022/11/13 14:08:23;;;;;;;14.80;13.40;;;;;;;;;;4995110;28;20038;-70
2022/11/13 14:11:28;;;;;;;16.80;15.02;;;;;;;;;;4994143;28;20385;-70
2022/11/13 14:14:18;;;;;;;13.90;12.43;;;;;;;;;;4993196;28;20060;-70
2022/11/13 14:17:02;;;;;;;12.55;11.45;;;;;;;;;;4991661;28;20088;-71
2022/11/13 14:19:54;;;;;;;13.18;11.95;;;;;;;;;;4978483;28;20038;-71
2022/11/13 14:22:42;;;;;;;13.15;11.75;;;;;;;;;;4990777;28;20034;-71
2022/11/13 14:25:27;;;;;;;12.20;11.00;;;;;;;;;;4990333;28;20034;-71
2022/11/13 14:28:20;;;;;;;13.73;12.23;;;;;;;;;;4995498;28;20100;-71
2022/11/13 14:31:08;;;;;;;13.98;12.57;;;;;;;;;;4991770;28;20044;-70
2022/11/13 14:33:53;;;;;;;13.05;11.63;;;;;;;;;;4993577;28;20115;-70
2022/11/13 14:36:38;;;;;;;18.63;13.35;;;;;;;;;;4989320;28;20042;-70
2022/11/13 14:39:29;;;;;;;14.10;12.68;;;;;;;;;;4994457;28;20125;-70
2022/11/13 14:42:21;;;;;;;13.65;12.27;;;;;;;;;;4990932;28;20046;-71
2022/11/13 14:45:19;;;;;;;13.82;12.48;;;;;;;;;;4990862;28;20053;-71
2022/11/13 14:48:25;;;;;;;15.20;13.45;;;;;;;;;;4992237;28;20061;-72
2022/11/13 14:51:28;;;;;;;16.70;13.68;;;;;;;;;;4983895;28;20030;-71
2022/11/13 14:54:28;;;;;;;19.08;14.32;;;;;;;;;;4986210;28;20034;-70
2022/11/13 14:57:14;;;;;;;21.98;15.18;;;;;;;;;;4979714;28;20077;-72
2022/11/13 15:00:18;;;;;;;16.35;14.00;;;;;;;;;;4990228;28;20044;-72
2022/11/13 15:03:04;;;;;;;13.73;12.32;;;;;;;;;;4991220;28;20044;-72
2022/11/13 15:05:49;;;;;;;16.20;12.82;;;;;;;;;;4975730;28;20057;-70
2022/11/13 15:08:34;;;;;;;14.35;12.95;;;;;;;;;;4985957;28;20030;-70
2022/11/13 15:11:21;;;;;;;14.68;12.63;;;;;;;;;;4986162;28;20125;-71
2022/11/13 15:14:15;;;;;;;15.30;13.00;;;;;;;;;;4991009;28;20053;-70
2022/11/13 15:16:59;;;;;;;13.98;12.48;;;;;;;;;;4987567;28;20579;-72
2022/11/13 15:19:50;;;;;;;16.00;13.18;;;;;;;;;;4988328;28;20034;-70
2022/11/13 15:22:35;;;;;;;19.48;14.52;;;;;;;;;;4974950;28;20042;-71
2022/11/13 15:25:22;;;;;;;17.10;13.55;;;;;;;;;;4985725;28;20682;-69
2022/11/13 15:28:08;;;;;;;14.63;13.07;;;;;;;;;;4987946;28;20074;-70
2022/11/13 15:30:52;;;;;;;18.13;15.27;;;;;;;;;;4993326;28;20461;-69
2022/11/13 15:33:36;;;;;;;16.10;14.40;;;;;;;;;;4984132;28;20583;-70
2022/11/13 15:36:21;;;;;;;15.30;13.70;;;;;;;;;;4995810;28;20095;-69
2022/11/13 15:39:06;;;;;;;17.02;13.70;;;;;;;;;;4994362;28;20661;-69
2022/11/13 15:41:51;;;;;;;19.33;14.15;;;;;;;;;;4988736;28;20042;-70
2022/11/13 15:44:35;;;;;;;17.27;14.32;;;;;;;;;;4986554;28;20061;-71
2022/11/13 15:47:22;;;;;;;18.23;14.40;;;;;;;;;;4992327;28;20491;-73
2022/11/13 15:50:07;;;;;;;18.90;14.45;;;;;;;;;;4985010;28;20412;-71
2022/11/13 15:52:52;;;;;;;20.17;15.30;;;;;;;;;;4993680;28;20032;-72
2022/11/13 15:55:39;;;;;;;16.63;13.45;;;;;;;;;;4997592;28;20117;-71
2022/11/13 15:58:23;;;;;;;16.55;14.30;;;;;;;;;;4988061;28;20096;-70
2022/11/13 16:01:12;;;;;;;14.45;12.93;;;;;;;;;;4988908;28;20050;-70
2022/11/13 16:04:00;;;;;;;17.17;13.95;;;;;;;;;;4991547;28;20602;-72
2022/11/13 16:06:45;;;;;;;22.77;13.95;;;;;;;;;;4971860;28;20524;-71
2022/11/13 16:09:29;;;;;;;18.55;13.55;;;;;;;;;;4974415;28;20041;-72
2022/11/13 16:12:13;;;;;;;14.65;12.98;;;;;;;;;;4986397;28;20752;-72
2022/11/13 16:14:58;;;;;;;17.20;13.07;;;;;;;;;;4988057;28;20119;-73
2022/11/13 16:17:46;;;;;;;18.92;14.77;;;;;;;;;;4992646;28;20030;-69